Terminal Aerodrome Forecast
Issued by NWS

Home | Current Version | Previous Version | Graphics & Text | Print | Product List | Glossary On
Versions: 1 2 3 4 5 6 7 8 9 10 11 12 13 14 15 16 17 18 19 20 21 22 23 24 25 26 27 28
000
FTUS45 KGGW 220848 AAA
TAFOLF
TAF AMD
KOLF 220848Z 2209/2306 11011KT P6SM BKN020 BKN050
     FM221300 09008KT P6SM BKN040
     FM221800 18007KT P6SM BKN060=

USA.gov is the U.S. government's official web portal to all federal, state and local government web resources and services.